WMKP/PEN METAR and TAF weather

Enter ICAO airport designator
Station Type Date Time Source
WMKP METAR 2021/07/26 17:00 UTC NOAA

WMKP 261700Z VRB02KT 7000 FEW025 28/25 Q1010 NOSIG


Station Type Date Time Source
WMKP Decoded METAR 2021/07/26 17:00 UTC NOAA

Penang / Bayan Lepas, Malaysia (WMKP) 05-18N 100-16E 4M
Jul 26, 2021 - 01:00 PM EDT / 2021.07.26 1700 UTC
Wind: Variable at 2 MPH (2 KT):0
Visibility: 4 mile(s):0
Sky conditions: mostly clear
Temperature: 82 F (28 C)
Dew Point: 77 F (25 C)
Relative Humidity: 83%
Pressure (altimeter): 29.83 in. Hg (1010 hPa)
ob: WMKP 261700Z VRB02KT 7000 FEW025 28/25 Q1010 NOSIG
cycle: 17

Station Type Date Time Source
WMKP TAF 2021/07/26 18:11 UTC NOAA

TAF WMKP 261700Z 2618/2718 00000KT 8000 FEW025 PROB30
TEMPO 2620/2700 6000 RA FEW017CB
BECMG 2703/2705 22008KT 9999 FEW020

Example: see airport list